Amalia, New Mexico
Current Conditions -  °F | °C
As of 12:55 AM on Friday 19 Dec 2014 (Local Time) from KSKX Reporting Station
Broken Clouds Broken Clouds  
Wind Chill: 17°   Ceiling: 5000
Heat Index: 25°   Visibility: 10mi
Dew Point: 19°   Wind: 7mph
Humidity: 80%   Direction: 340°NNW
Pressure: 30.12"   Gusts: NA
Location:  36.94°N, 105.45°W
Report Text: KSKX 190755Z AUTO 34006KT 10SM BKN050 M04/M07 A3012 RMK AO1
Loading
Personal Weather Stations






























Interactive Weather Map New forecast layout! Learn more

10-Day Weather Forecast

Advertisements
Track Severe Weather on mobile